Time;durP1;ratioP1;P1;durP2;ratioP2;P2;SDS_P1;SDS_P2;PMS_P1;PMS_P2;Temp;Humidity;BMP_temperature;BMP_pressure;BME280_temperature;BME280_humidity;BME280_pressure;Samples;Min_cycle;Max_cycle;Signal;HPM_P1;HPM_P2
2022/09/27 00:00:08;;;;;;;98.97;33.47;;;;;;;;;;10399643;22;20019;-86
2022/09/27 00:04:31;;;;;;;124.13;34.13;;;;;;;;;;10381967;22;20129;-86
2022/09/27 00:08:35;;;;;;;129.68;34.83;;;;;;;;;;10381659;22;20027;-87
2022/09/27 00:12:40;;;;;;;144.65;36.17;;;;;;;;;;10381821;22;20185;-86
2022/09/27 00:16:44;;;;;;;140.85;34.22;;;;;;;;;;10382141;22;20122;-85
2022/09/27 00:20:46;;;;;;;120.35;33.00;;;;;;;;;;10382131;22;20020;-86
2022/09/27 00:24:49;;;;;;;116.95;31.98;;;;;;;;;;10381539;22;20024;-86
2022/09/27 00:28:53;;;;;;;130.70;34.08;;;;;;;;;;10381922;22;20391;-86
2022/09/27 00:32:55;;;;;;;105.47;29.75;;;;;;;;;;10381445;22;20043;-86
2022/09/27 00:36:58;;;;;;;116.07;31.77;;;;;;;;;;10381980;22;20460;-87
2022/09/27 00:41:01;;;;;;;119.13;33.25;;;;;;;;;;10354397;22;20023;-87
2022/09/27 00:45:13;;;;;;;105.57;29.92;;;;;;;;;;10381672;22;20440;-86
2022/09/27 00:49:24;;;;;;;102.97;27.90;;;;;;;;;;10398425;22;20058;-87
2022/09/27 00:53:31;;;;;;;71.32;23.45;;;;;;;;;;10398589;22;20392;-84
2022/09/27 00:57:34;;;;;;;79.22;25.80;;;;;;;;;;10354318;22;20020;-88
2022/09/27 01:01:39;;;;;;;86.25;26.77;;;;;;;;;;10381128;22;20447;-88
2022/09/27 01:05:42;;;;;;;87.10;26.23;;;;;;;;;;10381086;22;20016;-87
2022/09/27 01:09:45;;;;;;;91.07;26.73;;;;;;;;;;10380983;22;20426;-87
2022/09/27 01:14:04;;;;;;;79.40;23.40;;;;;;;;;;10398553;22;20131;-86
2022/09/27 01:18:29;;;;;;;62.88;22.90;;;;;;;;;;10398399;22;20019;-87
2022/09/27 01:22:38;;;;;;;54.65;22.00;;;;;;;;;;10397965;22;20019;-86
2022/09/27 01:26:57;;;;;;;45.60;18.85;;;;;;;;;;10397825;22;20030;-87
2022/09/27 01:31:06;;;;;;;51.63;22.15;;;;;;;;;;10398311;22;20069;-86
2022/09/27 01:35:19;;;;;;;58.08;22.52;;;;;;;;;;10399019;22;20394;-85
2022/09/27 01:39:35;;;;;;;65.13;24.08;;;;;;;;;;10384785;22;20479;-86
2022/09/27 01:43:44;;;;;;;71.80;24.42;;;;;;;;;;10403569;22;20023;-85
2022/09/27 01:47:52;;;;;;;74.70;24.25;;;;;;;;;;10403625;22;20020;-85
2022/09/27 01:51:59;;;;;;;78.45;23.90;;;;;;;;;;10403357;22;20314;-87
2022/09/27 01:56:05;;;;;;;74.00;24.63;;;;;;;;;;10404146;22;20312;-86
2022/09/27 02:00:11;;;;;;;82.75;24.10;;;;;;;;;;10403938;22;20038;-85
2022/09/27 02:04:21;;;;;;;74.03;23.00;;;;;;;;;;10403716;22;20062;-85
2022/09/27 02:08:30;;;;;;;88.95;24.35;;;;;;;;;;10403687;22;20544;-87
2022/09/27 02:12:40;;;;;;;83.47;23.40;;;;;;;;;;10391371;22;20055;-86
2022/09/27 02:16:49;;;;;;;102.60;24.10;;;;;;;;;;10403492;22;20306;-86
2022/09/27 02:20:58;;;;;;;129.68;30.45;;;;;;;;;;10406755;22;20026;-86
2022/09/27 02:25:06;;;;;;;142.60;33.17;;;;;;;;;;10406425;22;20019;-86
2022/09/27 02:29:12;;;;;;;84.25;21.98;;;;;;;;;;10406343;22;20023;-86
2022/09/27 02:33:15;;;;;;;77.70;18.98;;;;;;;;;;10389470;22;20023;-86
2022/09/27 02:37:19;;;;;;;69.72;21.27;;;;;;;;;;10389293;22;20073;-86
2022/09/27 02:41:22;;;;;;;75.43;21.65;;;;;;;;;;10389288;22;20015;-86
2022/09/27 02:45:37;;;;;;;83.28;21.02;;;;;;;;;;10389393;22;20032;-86
2022/09/27 02:49:50;;;;;;;81.30;19.77;;;;;;;;;;10406839;22;20016;-86
2022/09/27 02:54:12;;;;;;;83.68;22.10;;;;;;;;;;10406362;22;20027;-86
2022/09/27 02:58:25;;;;;;;75.00;22.70;;;;;;;;;;10406018;22;20497;-86
2022/09/27 03:02:35;;;;;;;55.60;19.42;;;;;;;;;;10405905;22;20483;-86
2022/09/27 03:06:42;;;;;;;73.22;21.55;;;;;;;;;;10405756;22;20042;-86
2022/09/27 03:10:46;;;;;;;59.15;20.48;;;;;;;;;;10388518;22;20062;-86
2022/09/27 03:14:48;;;;;;;59.15;19.80;;;;;;;;;;10389210;22;20466;-85
2022/09/27 03:18:51;;;;;;;61.42;18.73;;;;;;;;;;10361573;22;20026;-86
2022/09/27 03:22:55;;;;;;;104.55;48.88;;;;;;;;;;10388703;22;20503;-85
2022/09/27 03:26:59;;;;;;;96.72;45.35;;;;;;;;;;10388803;22;20448;-86
2022/09/27 03:31:01;;;;;;;89.20;35.70;;;;;;;;;;10388252;22;20343;-86
2022/09/27 03:35:04;;;;;;;82.88;21.48;;;;;;;;;;10388833;22;20051;-86
2022/09/27 03:39:07;;;;;;;65.72;20.45;;;;;;;;;;10388418;22;20019;-86
2022/09/27 03:43:10;;;;;;;73.28;20.30;;;;;;;;;;10388614;22;20020;-86
2022/09/27 03:47:13;;;;;;;88.22;23.85;;;;;;;;;;10388226;22;20336;-85
2022/09/27 03:51:15;;;;;;;77.82;30.23;;;;;;;;;;10388486;22;20026;-85
2022/09/27 03:55:18;;;;;;;86.65;28.70;;;;;;;;;;10388368;22;20024;-86
2022/09/27 03:59:21;;;;;;;90.93;25.25;;;;;;;;;;10388613;22;20447;-86
2022/09/27 04:03:25;;;;;;;65.78;25.35;;;;;;;;;;10389071;22;20099;-86
2022/09/27 04:07:29;;;;;;;69.78;21.95;;;;;;;;;;10388083;22;20023;-84
2022/09/27 04:11:32;;;;;;;90.10;20.33;;;;;;;;;;10387624;22;20024;-85
2022/09/27 04:15:36;;;;;;;82.28;24.63;;;;;;;;;;10388134;22;20028;-85
2022/09/27 04:19:39;;;;;;;88.22;20.08;;;;;;;;;;10387641;22;20391;-85
2022/09/27 04:23:41;;;;;;;70.72;21.52;;;;;;;;;;10387697;22;20024;-85
2022/09/27 04:27:45;;;;;;;79.82;20.30;;;;;;;;;;10387509;22;20015;-85
2022/09/27 04:31:49;;;;;;;84.28;22.63;;;;;;;;;;10387295;22;20022;-85
2022/09/27 04:40:11;;;;;;;53.75;16.98;;;;;;;;;;10403909;22;20019;-86
2022/09/27 04:44:14;;;;;;;57.78;20.13;;;;;;;;;;10387269;22;20020;-85
2022/09/27 04:48:17;;;;;;;55.80;16.75;;;;;;;;;;10382823;22;20016;-86
2022/09/27 04:52:20;;;;;;;45.28;14.85;;;;;;;;;;10383343;22;20015;-86
2022/09/27 04:56:22;;;;;;;74.18;16.55;;;;;;;;;;10385755;22;20121;-86
2022/09/27 05:00:25;;;;;;;55.85;16.75;;;;;;;;;;10387102;22;20348;-85
2022/09/27 05:04:29;;;;;;;53.53;15.30;;;;;;;;;;10387025;22;20016;-86
2022/09/27 05:08:31;;;;;;;55.45;13.50;;;;;;;;;;10387161;22;20016;-86
2022/09/27 05:12:37;;;;;;;83.63;20.77;;;;;;;;;;10386571;22;20555;-86
2022/09/27 05:16:39;;;;;;;67.63;15.18;;;;;;;;;;10387280;22;20394;-86
2022/09/27 05:20:43;;;;;;;76.85;13.98;;;;;;;;;;10386936;22;20023;-87
2022/09/27 05:24:47;;;;;;;52.55;12.13;;;;;;;;;;10386829;22;20029;-85
2022/09/27 05:28:49;;;;;;;38.72;11.50;;;;;;;;;;10387018;22;20015;-86
2022/09/27 05:32:52;;;;;;;35.65;17.00;;;;;;;;;;10386890;22;20023;-86
2022/09/27 05:36:55;;;;;;;37.97;12.27;;;;;;;;;;10386897;22;20020;-85
2022/09/27 05:40:58;;;;;;;36.83;10.98;;;;;;;;;;10386809;22;20054;-86
2022/09/27 05:45:01;;;;;;;39.80;15.10;;;;;;;;;;10386884;22;20475;-85
2022/09/27 05:49:04;;;;;;;20.20;10.48;;;;;;;;;;10386499;22;20019;-86
2022/09/27 05:53:07;;;;;;;26.83;10.95;;;;;;;;;;10388908;22;20015;-87
2022/09/27 05:57:10;;;;;;;21.50;13.20;;;;;;;;;;10390050;22;20020;-85
2022/09/27 06:01:13;;;;;;;29.83;13.75;;;;;;;;;;10389661;22;20027;-85
2022/09/27 06:05:15;;;;;;;23.95;10.23;;;;;;;;;;10389769;22;20031;-86
2022/09/27 06:09:19;;;;;;;27.23;13.50;;;;;;;;;;10389683;22;20520;-86
2022/09/27 06:13:22;;;;;;;36.83;10.70;;;;;;;;;;10389457;22;20016;-85
2022/09/27 06:17:24;;;;;;;40.67;18.23;;;;;;;;;;10389735;22;20012;-85
2022/09/27 06:21:27;;;;;;;65.07;49.42;;;;;;;;;;10389775;22;20038;-85
2022/09/27 06:25:31;;;;;;;47.35;26.95;;;;;;;;;;10389370;22;20020;-85
2022/09/27 06:29:34;;;;;;;23.00;12.30;;;;;;;;;;10389447;22;20046;-85
2022/09/27 06:33:37;;;;;;;18.83;10.13;;;;;;;;;;10389552;22;20027;-86
2022/09/27 06:37:39;;;;;;;18.75;10.32;;;;;;;;;;10389370;22;20016;-85
2022/09/27 06:41:43;;;;;;;20.17;12.27;;;;;;;;;;10389304;22;20015;-85
2022/09/27 06:45:47;;;;;;;33.92;30.52;;;;;;;;;;10389145;22;20024;-86
2022/09/27 06:49:49;;;;;;;60.83;54.03;;;;;;;;;;10389122;22;20443;-85
2022/09/27 06:53:52;;;;;;;51.10;45.53;;;;;;;;;;10388682;22;20090;-86
2022/09/27 07:02:17;;;;;;;17.50;12.80;;;;;;;;;;10405871;22;20047;-86
2022/09/27 07:06:24;;;;;;;25.52;16.83;;;;;;;;;;10383786;22;20016;-86
2022/09/27 07:10:31;;;;;;;21.90;14.32;;;;;;;;;;10397715;22;20087;-87
2022/09/27 07:14:36;;;;;;;12.05;7.47;;;;;;;;;;10400227;22;20014;-88
2022/09/27 07:18:40;;;;;;;11.68;6.97;;;;;;;;;;10382884;22;20106;-85
2022/09/27 07:22:48;;;;;;;11.85;7.85;;;;;;;;;;10383132;22;20444;-88
2022/09/27 07:26:52;;;;;;;10.95;7.95;;;;;;;;;;10382825;22;20023;-89
2022/09/27 07:30:57;;;;;;;8.77;6.35;;;;;;;;;;10382826;22;20046;-88
2022/09/27 07:35:01;;;;;;;9.70;6.35;;;;;;;;;;10399916;22;20019;-89
2022/09/27 07:39:04;;;;;;;15.57;10.57;;;;;;;;;;10383136;22;20024;-89
2022/09/27 07:43:08;;;;;;;9.68;6.43;;;;;;;;;;10382711;22;20377;-89
2022/09/27 07:47:12;;;;;;;12.35;6.68;;;;;;;;;;10382301;22;20020;-87
2022/09/27 07:51:15;;;;;;;14.65;7.25;;;;;;;;;;10382413;22;20043;-90
2022/09/27 07:55:19;;;;;;;11.75;7.47;;;;;;;;;;10382286;22;20024;-88
2022/09/27 07:59:29;;;;;;;9.15;6.65;;;;;;;;;;10399604;22;20448;-88
2022/09/27 08:03:33;;;;;;;9.50;6.50;;;;;;;;;;10355409;22;20033;-89
2022/09/27 08:07:40;;;;;;;9.35;6.55;;;;;;;;;;10382226;22;20513;-89
2022/09/27 08:11:51;;;;;;;9.70;7.47;;;;;;;;;;10385975;22;20043;-88
2022/09/27 08:15:54;;;;;;;8.35;6.47;;;;;;;;;;10355395;22;20051;-88
2022/09/27 08:20:03;;;;;;;10.68;6.90;;;;;;;;;;10382476;22;20102;-89
2022/09/27 08:24:06;;;;;;;8.27;6.40;;;;;;;;;;10399618;22;20023;-90
2022/09/27 08:28:09;;;;;;;8.55;6.78;;;;;;;;;;10381629;22;20123;-88
2022/09/27 08:32:16;;;;;;;9.20;7.00;;;;;;;;;;10382445;22;20066;-87
2022/09/27 08:36:22;;;;;;;8.60;6.20;;;;;;;;;;10398760;22;20051;-88
2022/09/27 08:40:37;;;;;;;8.98;7.05;;;;;;;;;;10398809;22;20043;-87
2022/09/27 08:44:51;;;;;;;10.68;7.15;;;;;;;;;;10399485;22;20024;-88
2022/09/27 08:49:03;;;;;;;12.40;9.00;;;;;;;;;;10398948;22;20065;-87
2022/09/27 08:53:19;;;;;;;14.13;8.50;;;;;;;;;;10399025;22;20387;-89
2022/09/27 08:57:24;;;;;;;14.02;9.60;;;;;;;;;;10398691;22;20023;-87
2022/09/27 09:16:03;;;;;;;16.83;11.13;;;;;;;;;;10501786;22;20091;-87
2022/09/27 09:20:25;;;;;;;9.13;6.57;;;;;;;;;;10501467;22;20018;-87
2022/09/27 09:25:01;;;;;;;10.75;6.93;;;;;;;;;;10456426;22;20023;-88
2022/09/27 09:29:24;;;;;;;8.10;6.25;;;;;;;;;;10504509;22;20065;-87
2022/09/27 09:33:32;;;;;;;9.75;6.50;;;;;;;;;;10505762;22;20019;-87
2022/09/27 09:37:43;;;;;;;11.35;6.43;;;;;;;;;;10460146;22;20068;-87
2022/09/27 09:42:03;;;;;;;7.03;4.65;;;;;;;;;;10505443;22;20023;-88
2022/09/27 09:46:15;;;;;;;14.10;8.27;;;;;;;;;;10460463;22;20026;-87
2022/09/27 09:50:19;;;;;;;;;;;;;;;;;;10460622;22;20046;-89
2022/09/27 09:54:30;;;;;;;9.52;6.28;;;;;;;;;;10504003;22;19918;-87
2022/09/27 09:58:40;;;;;;;10.60;6.30;;;;;;;;;;10504743;22;20343;-88
2022/09/27 10:02:46;;;;;;;34.75;23.83;;;;;;;;;;10503785;22;20053;-88
2022/09/27 10:06:49;;;;;;;16.15;9.48;;;;;;;;;;10504287;22;20019;-87
2022/09/27 10:10:52;;;;;;;11.98;7.55;;;;;;;;;;10486573;22;20098;-87
2022/09/27 10:14:57;;;;;;;11.25;6.50;;;;;;;;;;10486553;22;20026;-87
2022/09/27 10:19:06;;;;;;;7.47;5.40;;;;;;;;;;10504115;22;20018;-88
2022/09/27 10:23:14;;;;;;;7.68;5.30;;;;;;;;;;10503984;22;20045;-87
2022/09/27 10:27:17;;;;;;;8.25;5.55;;;;;;;;;;10504748;22;20101;-88
2022/09/27 10:31:22;;;;;;;8.93;4.90;;;;;;;;;;10486260;22;20014;-88
2022/09/27 10:35:52;;;;;;;9.35;5.95;;;;;;;;;;10501488;22;20022;-88
2022/09/27 10:40:01;;;;;;;9.82;6.05;;;;;;;;;;10485124;22;20429;-88
2022/09/27 10:44:22;;;;;;;16.25;12.15;;;;;;;;;;10486393;22;20363;-89
2022/09/27 10:48:24;;;;;;;8.68;5.65;;;;;;;;;;10503819;22;20018;-87
2022/09/27 10:52:38;;;;;;;8.07;5.25;;;;;;;;;;10486452;22;20019;-87
2022/09/27 10:56:42;;;;;;;6.97;5.30;;;;;;;;;;10503441;22;20061;-87
2022/09/27 11:00:53;;;;;;;13.02;5.80;;;;;;;;;;10485885;22;20023;-87
2022/09/27 11:05:05;;;;;;;5.78;3.60;;;;;;;;;;10492071;22;20087;-87
2022/09/27 11:09:22;;;;;;;6.88;4.30;;;;;;;;;;10502468;22;20098;-87
2022/09/27 11:13:24;;;;;;;5.25;3.75;;;;;;;;;;10505442;22;20019;-86
2022/09/27 11:17:33;;;;;;;6.20;4.38;;;;;;;;;;10489074;22;20026;-87
2022/09/27 11:21:47;;;;;;;5.95;4.20;;;;;;;;;;10508900;22;20042;-87
2022/09/27 11:26:07;;;;;;;8.27;4.93;;;;;;;;;;10508312;22;20015;-85
2022/09/27 11:30:14;;;;;;;7.03;4.70;;;;;;;;;;10508855;22;20026;-86
2022/09/27 11:34:38;;;;;;;6.70;3.88;;;;;;;;;;10501460;22;20446;-87
2022/09/27 11:38:56;;;;;;;8.88;5.40;;;;;;;;;;10458846;22;20033;-87
2022/09/27 11:43:26;;;;;;;8.82;5.13;;;;;;;;;;10458558;22;20018;-88
2022/09/27 11:47:42;;;;;;;7.68;4.82;;;;;;;;;;10456599;22;20105;-86
2022/09/27 11:52:03;;;;;;;7.60;4.22;;;;;;;;;;10458696;22;20058;-88
2022/09/27 11:56:20;;;;;;;8.37;5.57;;;;;;;;;;10502665;22;20022;-88
2022/09/27 12:00:34;;;;;;;9.18;4.95;;;;;;;;;;10502339;22;20025;-87
2022/09/27 12:05:01;;;;;;;6.10;4.20;;;;;;;;;;10493753;22;20514;-89
2022/09/27 12:09:08;;;;;;;6.80;4.82;;;;;;;;;;10502527;22;20046;-87
2022/09/27 12:13:14;;;;;;;7.95;4.43;;;;;;;;;;10502456;22;20023;-88
2022/09/27 12:17:23;;;;;;;6.68;4.43;;;;;;;;;;10502250;22;20026;-88
2022/09/27 12:21:27;;;;;;;7.38;4.75;;;;;;;;;;10457752;22;20493;-87
2022/09/27 12:25:32;;;;;;;7.25;5.00;;;;;;;;;;10457523;22;20026;-88
2022/09/27 12:29:38;;;;;;;7.32;5.28;;;;;;;;;;10484459;22;20021;-88
2022/09/27 12:33:49;;;;;;;9.48;5.85;;;;;;;;;;10502810;22;20023;-89
2022/09/27 12:37:58;;;;;;;7.22;4.93;;;;;;;;;;10501951;22;20018;-87
2022/09/27 12:42:08;;;;;;;6.68;4.80;;;;;;;;;;10501298;22;20026;-87
2022/09/27 12:46:21;;;;;;;8.25;5.50;;;;;;;;;;10501608;22;20073;-87
2022/09/27 12:50:34;;;;;;;6.95;4.95;;;;;;;;;;10501532;22;20022;-87
2022/09/27 12:55:07;;;;;;;8.13;4.90;;;;;;;;;;10501675;22;20042;-86
2022/09/27 12:59:40;;;;;;;9.65;6.18;;;;;;;;;;10483078;22;20027;-87
2022/09/27 13:04:10;;;;;;;9.02;4.88;;;;;;;;;;10495744;22;20023;-87
2022/09/27 13:08:27;;;;;;;10.20;6.10;;;;;;;;;;10501057;22;20413;-87
2022/09/27 13:12:31;;;;;;;10.05;5.90;;;;;;;;;;10502314;22;20026;-88
2022/09/27 13:16:43;;;;;;;12.60;7.82;;;;;;;;;;10501718;22;20071;-88
2022/09/27 13:20:48;;;;;;;8.30;5.32;;;;;;;;;;10503055;22;20065;-88
2022/09/27 13:24:55;;;;;;;9.52;5.90;;;;;;;;;;10502877;22;20457;-88
2022/09/27 13:29:02;;;;;;;7.32;4.82;;;;;;;;;;10501557;22;20015;-88
2022/09/27 13:33:33;;;;;;;8.57;5.85;;;;;;;;;;10504075;22;20128;-88
2022/09/27 13:37:57;;;;;;;8.65;5.88;;;;;;;;;;10503013;22;20109;-88
2022/09/27 13:42:28;;;;;;;7.53;4.65;;;;;;;;;;10458826;22;20027;-87
2022/09/27 13:46:41;;;;;;;13.73;7.65;;;;;;;;;;10485497;22;20022;-88
2022/09/27 13:50:55;;;;;;;9.82;6.78;;;;;;;;;;10502413;22;20107;-87
2022/09/27 13:54:58;;;;;;;;;;;;;;;;;;10503190;22;20023;-88
2022/09/27 13:59:10;;;;;;;13.55;9.80;;;;;;;;;;10486485;22;19922;-86
2022/09/27 14:03:17;;;;;;;12.55;7.30;;;;;;;;;;10486075;22;20026;-87
2022/09/27 14:07:25;;;;;;;12.65;9.60;;;;;;;;;;10504946;22;20026;-86
2022/09/27 14:11:32;;;;;;;19.50;12.80;;;;;;;;;;10503878;22;20030;-86
2022/09/27 14:15:38;;;;;;;13.02;9.25;;;;;;;;;;10463316;22;20023;-87
2022/09/27 14:19:43;;;;;;;16.90;10.93;;;;;;;;;;10509310;22;20466;-87
2022/09/27 14:23:46;;;;;;;11.50;8.70;;;;;;;;;;10490234;22;20045;-87
2022/09/27 14:27:48;;;;;;;14.65;9.05;;;;;;;;;;10491926;22;20027;-87
2022/09/27 14:32:08;;;;;;;25.85;13.80;;;;;;;;;;10486608;22;20065;-87
2022/09/27 14:40:58;;;;;;;14.65;9.05;;;;;;;;;;10506391;22;20022;-88
2022/09/27 14:45:06;;;;;;;13.40;9.32;;;;;;;;;;10503725;22;20025;-87
2022/09/27 14:49:22;;;;;;;13.68;9.57;;;;;;;;;;10504973;22;20014;-88
2022/09/27 14:53:25;;;;;;;11.68;9.27;;;;;;;;;;10458990;22;20025;-88
2022/09/27 14:57:31;;;;;;;15.07;10.07;;;;;;;;;;10485607;22;20019;-87
2022/09/27 15:01:39;;;;;;;13.05;9.63;;;;;;;;;;10486255;22;20026;-88
2022/09/27 15:05:43;;;;;;;16.45;12.13;;;;;;;;;;10485188;22;20062;-87
2022/09/27 15:09:46;;;;;;;20.98;13.10;;;;;;;;;;10485485;22;20342;-87
2022/09/27 15:13:53;;;;;;;20.40;13.25;;;;;;;;;;10485468;22;20033;-88
2022/09/27 15:17:57;;;;;;;18.55;11.70;;;;;;;;;;10485404;22;20052;-87
2022/09/27 15:22:32;;;;;;;16.55;10.90;;;;;;;;;;10485865;22;20086;-87
2022/09/27 15:26:37;;;;;;;18.42;12.68;;;;;;;;;;10485125;22;20355;-87
2022/09/27 15:30:43;;;;;;;17.65;11.05;;;;;;;;;;10502648;22;20088;-87
2022/09/27 15:34:45;;;;;;;13.68;9.52;;;;;;;;;;10485153;22;20443;-87
2022/09/27 15:39:07;;;;;;;20.17;13.07;;;;;;;;;;10503049;22;20029;-87
2022/09/27 15:43:20;;;;;;;23.60;13.48;;;;;;;;;;10505756;22;20023;-89
2022/09/27 15:47:41;;;;;;;22.33;13.80;;;;;;;;;;10458656;22;20389;-88
2022/09/27 15:51:46;;;;;;;17.77;12.65;;;;;;;;;;10483666;22;20045;-88
2022/09/27 15:55:55;;;;;;;16.58;10.45;;;;;;;;;;10504824;22;20014;-87
2022/09/27 15:59:57;;;;;;;21.65;14.93;;;;;;;;;;10485691;22;20027;-86
2022/09/27 16:04:01;;;;;;;20.80;12.52;;;;;;;;;;10486091;22;20060;-88
2022/09/27 16:08:03;;;;;;;21.40;13.45;;;;;;;;;;10487148;22;20018;-87
2022/09/27 16:12:10;;;;;;;31.88;19.17;;;;;;;;;;10503187;22;20046;-86
2022/09/27 16:16:16;;;;;;;48.50;23.95;;;;;;;;;;10484846;22;20458;-87
2022/09/27 16:20:22;;;;;;;22.48;14.77;;;;;;;;;;10502143;22;20101;-86
2022/09/27 16:24:26;;;;;;;47.10;29.33;;;;;;;;;;10485393;22;20410;-89
2022/09/27 16:28:32;;;;;;;64.80;38.17;;;;;;;;;;10484979;22;20015;-86
2022/09/27 16:32:34;;;;;;;22.27;14.15;;;;;;;;;;10484976;22;20462;-88
2022/09/27 16:36:38;;;;;;;30.38;19.00;;;;;;;;;;10486262;22;20342;-85
2022/09/27 16:40:40;;;;;;;34.28;21.48;;;;;;;;;;10483941;22;20019;-87
2022/09/27 16:44:46;;;;;;;44.83;29.25;;;;;;;;;;10482853;22;20021;-91
2022/09/27 16:48:49;;;;;;;40.88;27.20;;;;;;;;;;10502496;22;20018;-88
2022/09/27 16:52:51;;;;;;;38.70;20.50;;;;;;;;;;10457624;22;20029;-89
2022/09/27 16:56:53;;;;;;;19.65;12.07;;;;;;;;;;10484830;22;20457;-88
2022/09/27 17:00:59;;;;;;;53.97;21.08;;;;;;;;;;10457402;22;20021;-90
2022/09/27 17:05:02;;;;;;;42.88;21.15;;;;;;;;;;10485069;22;20114;-90
2022/09/27 17:09:05;;;;;;;25.20;15.52;;;;;;;;;;10484157;22;20037;-87
2022/09/27 17:13:07;;;;;;;27.45;17.50;;;;;;;;;;10457580;22;20018;-88
2022/09/27 17:17:11;;;;;;;22.08;14.63;;;;;;;;;;10483765;22;20049;-86
2022/09/27 17:21:14;;;;;;;23.00;14.45;;;;;;;;;;10484736;22;20381;-90
2022/09/27 17:25:16;;;;;;;20.38;12.68;;;;;;;;;;10484672;22;20090;-86
2022/09/27 17:29:20;;;;;;;20.60;12.80;;;;;;;;;;10484689;22;20159;-88
2022/09/27 17:33:25;;;;;;;22.20;13.68;;;;;;;;;;10485471;22;20015;-88
2022/09/27 17:37:28;;;;;;;21.83;13.80;;;;;;;;;;10485487;22;20015;-87
2022/09/27 17:41:33;;;;;;;23.80;14.07;;;;;;;;;;10487811;22;20394;-88
2022/09/27 17:45:36;;;;;;;28.55;17.38;;;;;;;;;;10486289;22;20316;-87
2022/09/27 17:54:00;;;;;;;28.98;17.10;;;;;;;;;;10510233;22;20018;-88
2022/09/27 17:58:04;;;;;;;34.30;18.42;;;;;;;;;;10492876;22;20369;-89
2022/09/27 18:02:09;;;;;;;34.67;18.92;;;;;;;;;;10493111;22;20470;-88
2022/09/27 18:06:15;;;;;;;47.67;28.27;;;;;;;;;;10494672;22;20018;-87
2022/09/27 18:10:20;;;;;;;30.15;17.35;;;;;;;;;;10492762;22;20076;-87
2022/09/27 18:14:25;;;;;;;26.75;15.77;;;;;;;;;;10493009;22;20493;-88
2022/09/27 18:18:28;;;;;;;42.65;23.40;;;;;;;;;;10492643;22;20015;-87
2022/09/27 18:22:32;;;;;;;31.60;18.88;;;;;;;;;;10492694;22;20018;-87
2022/09/27 18:26:37;;;;;;;30.08;18.77;;;;;;;;;;10492179;22;20021;-86
2022/09/27 18:30:40;;;;;;;31.38;18.63;;;;;;;;;;10509939;22;20019;-87
2022/09/27 18:34:42;;;;;;;46.70;21.58;;;;;;;;;;10492660;22;20093;-87
2022/09/27 18:38:47;;;;;;;29.88;17.98;;;;;;;;;;10492469;22;20015;-86
2022/09/27 18:42:50;;;;;;;27.73;16.05;;;;;;;;;;10492347;22;20064;-88
2022/09/27 18:46:52;;;;;;;62.28;28.02;;;;;;;;;;10492253;22;20023;-86
2022/09/27 18:50:55;;;;;;;29.58;18.30;;;;;;;;;;10492318;22;20023;-86
2022/09/27 18:54:59;;;;;;;33.60;19.63;;;;;;;;;;10492204;22;20014;-86
2022/09/27 18:59:01;;;;;;;39.20;20.55;;;;;;;;;;10491701;22;20023;-87
2022/09/27 19:03:04;;;;;;;38.22;21.65;;;;;;;;;;10491985;22;20108;-89
2022/09/27 19:07:07;;;;;;;37.17;21.50;;;;;;;;;;10509693;22;20025;-85
2022/09/27 19:11:14;;;;;;;36.95;22.00;;;;;;;;;;10492143;22;20159;-86
2022/09/27 19:15:16;;;;;;;34.90;20.70;;;;;;;;;;10508034;22;20022;-84
2022/09/27 19:19:20;;;;;;;33.72;19.67;;;;;;;;;;10508710;22;20101;-84
2022/09/27 19:23:23;;;;;;;33.70;20.15;;;;;;;;;;10491948;22;20014;-88
2022/09/27 19:27:30;;;;;;;44.35;22.77;;;;;;;;;;10491674;22;20023;-89
2022/09/27 19:31:34;;;;;;;42.53;23.27;;;;;;;;;;10491769;22;20451;-87
2022/09/27 19:35:37;;;;;;;35.97;21.13;;;;;;;;;;10491505;22;20097;-86
2022/09/27 19:39:39;;;;;;;40.47;22.13;;;;;;;;;;10491795;22;20019;-85
2022/09/27 19:43:46;;;;;;;42.70;21.35;;;;;;;;;;10491942;22;20089;-88
2022/09/27 19:47:48;;;;;;;39.92;22.27;;;;;;;;;;10508936;22;20466;-85
2022/09/27 19:51:51;;;;;;;46.92;22.77;;;;;;;;;;10491758;22;20049;-87
2022/09/27 19:55:58;;;;;;;31.52;17.17;;;;;;;;;;10491709;22;20025;-85
2022/09/27 20:00:02;;;;;;;25.35;15.68;;;;;;;;;;10491314;22;20093;-89
2022/09/27 20:04:05;;;;;;;26.17;14.45;;;;;;;;;;10491254;22;20554;-86
2022/09/27 20:08:08;;;;;;;18.30;11.10;;;;;;;;;;10491670;22;20038;-88
2022/09/27 20:12:10;;;;;;;17.48;10.25;;;;;;;;;;10491827;22;20034;-86
2022/09/27 20:16:16;;;;;;;19.38;10.60;;;;;;;;;;10491588;22;20026;-86
2022/09/27 20:20:18;;;;;;;17.20;9.10;;;;;;;;;;10508587;22;20018;-86
2022/09/27 20:24:21;;;;;;;13.68;7.47;;;;;;;;;;10491374;22;20037;-86
2022/09/27 20:28:23;;;;;;;10.10;6.22;;;;;;;;;;10491142;22;20019;-87
2022/09/27 20:32:27;;;;;;;12.45;5.82;;;;;;;;;;10491306;22;20339;-84
2022/09/27 20:36:31;;;;;;;10.70;6.10;;;;;;;;;;10491299;22;20021;-87
2022/09/27 20:40:34;;;;;;;9.07;5.15;;;;;;;;;;10490935;22;20015;-86
2022/09/27 20:44:37;;;;;;;6.18;3.95;;;;;;;;;;10491152;22;20019;-86
2022/09/27 20:48:41;;;;;;;6.18;3.90;;;;;;;;;;10490964;22;20019;-89
2022/09/27 20:52:44;;;;;;;4.35;2.70;;;;;;;;;;10490868;22;20048;-87
2022/09/27 20:56:48;;;;;;;4.68;3.20;;;;;;;;;;10491465;22;20041;-88
2022/09/27 21:00:50;;;;;;;6.25;3.10;;;;;;;;;;10490978;22;20608;-86
2022/09/27 21:04:54;;;;;;;5.55;2.95;;;;;;;;;;10491107;22;20030;-86
2022/09/27 21:08:56;;;;;;;6.57;3.53;;;;;;;;;;10490766;22;20090;-87
2022/09/27 21:12:59;;;;;;;5.07;3.03;;;;;;;;;;10490542;22;20072;-84
2022/09/27 21:17:01;;;;;;;5.57;2.92;;;;;;;;;;10490255;22;20030;-88
2022/09/27 21:21:07;;;;;;;5.60;3.20;;;;;;;;;;10490634;22;20098;-86
2022/09/27 21:25:09;;;;;;;4.78;2.92;;;;;;;;;;10493532;22;20028;-85
2022/09/27 21:29:13;;;;;;;5.00;2.58;;;;;;;;;;10494016;22;20067;-85
2022/09/27 21:33:15;;;;;;;4.57;2.30;;;;;;;;;;10493846;22;20019;-84
2022/09/27 21:37:19;;;;;;;3.97;2.17;;;;;;;;;;10493794;22;20030;-86
2022/09/27 21:41:22;;;;;;;3.33;2.20;;;;;;;;;;10493658;22;20018;-86
2022/09/27 21:45:25;;;;;;;3.38;2.22;;;;;;;;;;10493778;22;20049;-84
2022/09/27 21:49:28;;;;;;;5.85;2.30;;;;;;;;;;10493670;22;20015;-87
2022/09/27 21:53:32;;;;;;;7.63;2.70;;;;;;;;;;10493386;22;20022;-85
2022/09/27 21:57:35;;;;;;;4.78;2.30;;;;;;;;;;10493323;22;20022;-87
2022/09/27 22:01:37;;;;;;;4.28;2.53;;;;;;;;;;10493297;22;20015;-85
2022/09/27 22:05:44;;;;;;;5.40;2.35;;;;;;;;;;10493067;22;20029;-84
2022/09/27 22:09:48;;;;;;;2.80;1.83;;;;;;;;;;10510584;22;20022;-86
2022/09/27 22:13:50;;;;;;;4.70;2.72;;;;;;;;;;10493131;22;20090;-85
2022/09/27 22:17:53;;;;;;;6.65;2.38;;;;;;;;;;10492892;22;20382;-84
2022/09/27 22:21:55;;;;;;;5.10;2.25;;;;;;;;;;10493029;22;20097;-84
2022/09/27 22:26:00;;;;;;;3.75;2.47;;;;;;;;;;10493125;22;20023;-84
2022/09/27 22:30:02;;;;;;;6.80;3.30;;;;;;;;;;10492780;22;20026;-88
2022/09/27 22:34:09;;;;;;;6.03;3.13;;;;;;;;;;10492844;22;20019;-86
2022/09/27 22:38:11;;;;;;;7.85;3.50;;;;;;;;;;10493182;22;20068;-86
2022/09/27 22:42:17;;;;;;;11.20;3.47;;;;;;;;;;10492689;22;20026;-84
2022/09/27 22:46:20;;;;;;;5.68;3.50;;;;;;;;;;10510223;22;20516;-86
2022/09/27 22:50:22;;;;;;;5.68;2.92;;;;;;;;;;10492781;22;20375;-87
2022/09/27 22:54:25;;;;;;;4.38;2.70;;;;;;;;;;10492437;22;20026;-85
2022/09/27 22:58:30;;;;;;;6.18;2.78;;;;;;;;;;10492476;22;20015;-85
2022/09/27 23:02:32;;;;;;;4.88;2.58;;;;;;;;;;10492367;22;20046;-89
2022/09/27 23:06:37;;;;;;;9.70;3.53;;;;;;;;;;10492040;22;20097;-84
2022/09/27 23:10:40;;;;;;;5.13;2.67;;;;;;;;;;10509429;22;20026;-84
2022/09/27 23:14:44;;;;;;;5.85;2.40;;;;;;;;;;10492163;22;20019;-85
2022/09/27 23:18:47;;;;;;;4.80;2.80;;;;;;;;;;10491803;22;20022;-84
2022/09/27 23:22:49;;;;;;;4.35;2.95;;;;;;;;;;10491918;22;20015;-84
2022/09/27 23:27:40;;;;;;;6.50;3.28;;;;;;;;;;10491832;22;20042;-85
2022/09/27 23:31:17;;;;;;;5.38;2.60;;;;;;;;;;10493512;22;20137;-84
2022/09/27 23:35:19;;;;;;;7.38;3.50;;;;;;;;;;10492098;22;20330;-85
2022/09/27 23:39:22;;;;;;;7.50;3.45;;;;;;;;;;10491682;22;20014;-86
2022/09/27 23:43:24;;;;;;;5.18;3.17;;;;;;;;;;10491706;22;20099;-85
2022/09/27 23:47:28;;;;;;;5.57;3.45;;;;;;;;;;10491109;22;20010;-84
2022/09/27 23:51:30;;;;;;;6.00;3.38;;;;;;;;;;10491330;22;20494;-85
2022/09/27 23:55:33;;;;;;;8.55;3.67;;;;;;;;;;10491405;22;20018;-85
2022/09/27 23:59:37;;;;;;;6.80;3.40;;;;;;;;;;10491240;22;20089;-86
